Terminal Aerodrome Forecast
Issued by NWS

Home | Current Version | Previous Version | Graphics & Text | Print | Product List | Glossary On
Versions: 1 2 3 4 5 6 7 8 9 10 11 12 13 14 15 16
000
FTUS43 KMPX 211700
TAFAXN
TAF
KAXN 211725Z 2118/2218 33021G27KT P6SM SCT025
     FM220100 34012KT P6SM SKC
     FM220400 36006KT P6SM SKC
     FM221400 04005KT P6SM SCT250=

USA.gov is the U.S. government's official web portal to all federal, state and local government web resources and services.